createdAt,value
2018-06-09T00:00:24.394Z,94970.00
2018-06-09T00:02:55.339Z,94969.00
2018-06-09T00:05:24.517Z,94972.00
2018-06-09T00:07:54.299Z,94968.00
2018-06-09T00:10:24.385Z,94963.00
2018-06-09T00:12:54.380Z,94956.00
2018-06-09T00:15:24.349Z,94953.00
2018-06-09T00:17:54.453Z,94964.00
2018-06-09T00:20:24.462Z,94963.00
2018-06-09T00:22:54.434Z,94963.00
2018-06-09T00:25:24.546Z,94972.00
2018-06-09T00:27:54.576Z,94974.00
2018-06-09T00:30:24.595Z,94973.00
2018-06-09T00:32:54.689Z,94969.00
2018-06-09T00:35:24.779Z,94971.00
2018-06-09T00:37:54.766Z,94988.00
2018-06-09T00:40:24.655Z,94984.00
2018-06-09T00:42:54.725Z,94983.00
2018-06-09T00:45:24.737Z,94991.00
2018-06-09T00:47:54.765Z,94982.00
2018-06-09T00:50:24.859Z,94980.00
2018-06-09T00:52:54.863Z,94979.00
2018-06-09T00:55:24.758Z,94984.00
2018-06-09T00:57:54.945Z,94982.00
2018-06-09T01:00:24.938Z,94976.00
2018-06-09T01:02:54.953Z,94972.00
2018-06-09T01:05:25.129Z,94972.00
2018-06-09T01:07:55.254Z,94969.00
2018-06-09T01:10:25.058Z,94979.00
2018-06-09T01:12:55.172Z,94972.00
2018-06-09T01:15:25.059Z,94959.00
2018-06-09T01:17:55.162Z,94952.00
2018-06-09T01:20:25.334Z,94940.00
2018-06-09T01:22:55.255Z,94941.00
2018-06-09T01:25:25.319Z,94941.00
2018-06-09T01:27:56.063Z,94961.00
2018-06-09T01:30:25.290Z,94957.00
2018-06-09T01:32:55.353Z,94951.00
2018-06-09T01:35:25.370Z,94937.00
2018-06-09T01:37:55.342Z,94948.00
2018-06-09T01:40:25.386Z,94946.00
2018-06-09T01:42:55.466Z,94947.00
2018-06-09T01:45:25.499Z,94947.00
2018-06-09T01:47:55.397Z,94941.00
2018-06-09T01:50:25.498Z,94935.00
2018-06-09T01:52:55.439Z,94957.00
2018-06-09T01:55:25.689Z,94949.00
2018-06-09T01:57:55.666Z,94948.00
2018-06-09T02:00:25.526Z,94946.00
2018-06-09T02:02:55.631Z,94937.00
2018-06-09T02:05:25.757Z,94937.00
2018-06-09T02:07:55.761Z,94922.00
2018-06-09T02:10:25.734Z,94918.00
2018-06-09T02:12:55.769Z,94923.00
2018-06-09T02:15:25.880Z,94916.00
2018-06-09T02:17:55.909Z,94922.00
2018-06-09T02:20:25.855Z,94915.00
2018-06-09T02:22:55.962Z,94926.00
2018-06-09T02:25:25.923Z,94922.00
2018-06-09T02:27:55.921Z,94927.00
2018-06-09T02:30:26.007Z,94939.00
2018-06-09T02:32:55.929Z,94938.00
2018-06-09T02:35:26.088Z,94948.00
2018-06-09T02:37:56.006Z,94947.00
2018-06-09T02:40:26.006Z,94953.00
2018-06-09T02:42:56.127Z,94961.00
2018-06-09T02:45:26.190Z,94965.00
2018-06-09T02:47:56.135Z,94970.00
2018-06-09T02:50:26.257Z,94964.00
2018-06-09T02:52:56.455Z,94977.00
2018-06-09T02:55:26.373Z,94975.00
2018-06-09T02:57:56.337Z,94969.00
2018-06-09T03:00:26.294Z,94975.00
2018-06-09T03:02:56.354Z,94968.00
2018-06-09T03:05:26.350Z,94964.00
2018-06-09T03:07:56.511Z,94958.00
2018-06-09T03:10:26.446Z,94955.00
2018-06-09T03:12:56.493Z,94954.00
2018-06-09T03:15:26.586Z,94951.00
2018-06-09T03:17:56.550Z,94959.00
2018-06-09T03:20:26.539Z,94968.00
2018-06-09T03:22:56.574Z,94979.00
2018-06-09T03:25:26.594Z,94987.00
2018-06-09T03:27:56.641Z,94987.00
2018-06-09T03:30:26.738Z,94990.00
2018-06-09T03:32:56.751Z,94990.00
2018-06-09T03:35:26.759Z,94989.00
2018-06-09T03:37:56.600Z,94998.00
2018-06-09T03:40:26.571Z,94995.00
2018-06-09T03:42:56.934Z,94996.00
2018-06-09T03:45:26.827Z,95002.00
2018-06-09T03:47:57.079Z,94994.00
2018-06-09T03:50:27.098Z,94998.00
2018-06-09T03:53:01.064Z,95005.00
2018-06-09T03:55:31.542Z,95002.00
2018-06-09T03:58:00.738Z,95005.00
2018-06-09T04:00:29.937Z,95019.00
2018-06-09T04:02:59.126Z,95012.00
2018-06-09T04:05:28.183Z,95016.00
2018-06-09T04:07:57.298Z,95023.00
2018-06-09T04:10:27.194Z,95014.00
2018-06-09T04:12:57.396Z,95011.00
2018-06-09T04:15:27.114Z,95012.00
2018-06-09T04:17:57.114Z,95008.00
2018-06-09T04:20:27.278Z,95003.00
2018-06-09T04:22:57.214Z,95007.00
2018-06-09T04:25:27.230Z,95008.00
2018-06-09T04:27:57.170Z,95015.00
2018-06-09T04:30:27.294Z,95022.00
2018-06-09T04:32:57.501Z,95021.00
2018-06-09T04:35:27.623Z,95023.00
2018-06-09T04:37:57.522Z,95025.00
2018-06-09T04:40:27.390Z,95032.00
2018-06-09T04:42:57.494Z,95038.00
2018-06-09T04:45:28.256Z,95051.00
2018-06-09T04:47:57.523Z,95040.00
2018-06-09T04:50:27.530Z,95050.00
2018-06-09T04:52:57.506Z,95043.00
2018-06-09T04:55:27.497Z,95042.00
2018-06-09T04:57:57.570Z,95049.00
2018-06-09T05:00:27.485Z,95047.00
2018-06-09T05:02:58.246Z,95042.00
2018-06-09T05:05:27.533Z,95042.00
2018-06-09T05:07:57.758Z,95050.00
2018-06-09T05:10:27.639Z,95056.00
2018-06-09T05:12:57.857Z,95053.00
2018-06-09T05:15:27.766Z,95057.00
2018-06-09T05:17:57.748Z,95048.00
2018-06-09T05:20:27.859Z,95046.00
2018-06-09T05:22:57.851Z,95051.00
2018-06-09T05:25:27.934Z,95047.00
2018-06-09T05:27:58.020Z,95044.00
2018-06-09T05:30:27.942Z,95036.00
2018-06-09T05:32:57.993Z,95052.00
2018-06-09T05:35:28.061Z,95051.00
2018-06-09T05:37:57.801Z,95054.00
2018-06-09T05:40:27.878Z,95051.00
2018-06-09T05:42:58.250Z,95057.00
2018-06-09T05:45:28.202Z,95055.00
2018-06-09T05:47:58.138Z,95056.00
2018-06-09T05:50:28.162Z,95050.00
2018-06-09T05:52:58.309Z,95044.00
2018-06-09T05:55:28.319Z,95041.00
2018-06-09T05:57:58.378Z,95038.00
2018-06-09T06:00:28.366Z,95041.00
2018-06-09T06:02:58.403Z,95032.00
2018-06-09T06:05:28.422Z,95035.00
2018-06-09T06:07:58.469Z,95044.00
2018-06-09T06:10:28.522Z,95034.00
2018-06-09T06:12:58.518Z,95027.00
2018-06-09T06:15:28.578Z,95027.00
2018-06-09T06:17:58.645Z,95019.00
2018-06-09T06:20:28.659Z,95035.00
2018-06-09T06:22:58.720Z,95038.00
2018-06-09T06:25:28.654Z,95038.00
2018-06-09T06:27:58.749Z,95034.00
2018-06-09T06:30:28.801Z,95038.00
2018-06-09T06:32:58.934Z,95041.00
2018-06-09T06:35:28.957Z,95039.00
2018-06-09T06:37:58.937Z,95035.00
2018-06-09T06:40:28.942Z,95034.00
2018-06-09T06:42:58.990Z,95031.00
2018-06-09T06:45:29.098Z,95030.00
2018-06-09T06:47:59.070Z,95035.00
2018-06-09T06:50:29.038Z,95037.00
2018-06-09T06:52:59.081Z,95027.00
2018-06-09T06:55:29.129Z,95039.00
2018-06-09T06:57:59.177Z,95040.00
2018-06-09T07:00:29.150Z,95032.00
2018-06-09T07:02:59.098Z,95040.00
2018-06-09T07:05:29.262Z,95051.00
2018-06-09T07:07:59.355Z,95053.00
2018-06-09T07:10:29.296Z,95046.00
2018-06-09T07:12:59.486Z,95054.00
2018-06-09T07:15:29.421Z,95053.00
2018-06-09T07:18:00.934Z,95048.00
2018-06-09T07:20:30.154Z,95054.00
2018-06-09T07:22:59.502Z,95067.00
2018-06-09T07:25:29.553Z,95066.00
2018-06-09T07:27:59.546Z,95076.00
2018-06-09T07:30:29.590Z,95072.00
2018-06-09T07:32:59.566Z,95065.00
2018-06-09T07:35:29.567Z,95068.00
2018-06-09T07:37:59.701Z,95073.00
2018-06-09T07:40:29.793Z,95076.00
2018-06-09T07:43:00.521Z,95077.00
2018-06-09T07:45:29.750Z,95079.00
2018-06-09T07:47:59.750Z,95074.00
2018-06-09T07:50:29.826Z,95080.00
2018-06-09T07:52:59.909Z,95080.00
2018-06-09T07:55:29.852Z,95074.00
2018-06-09T07:57:59.914Z,95078.00
2018-06-09T08:00:29.927Z,95073.00
2018-06-09T08:02:59.935Z,95083.00
2018-06-09T08:05:29.958Z,95077.00
2018-06-09T08:07:59.975Z,95079.00
2018-06-09T08:10:29.936Z,95069.00
2018-06-09T08:13:00.122Z,95075.00
2018-06-09T08:15:30.021Z,95074.00
2018-06-09T08:17:59.989Z,95075.00
2018-06-09T08:20:30.198Z,95082.00
2018-06-09T08:23:00.194Z,95080.00
2018-06-09T08:25:30.178Z,95075.00
2018-06-09T08:28:01.150Z,95069.00
2018-06-09T08:30:30.410Z,95077.00
2018-06-09T08:33:00.358Z,95077.00
2018-06-09T08:35:30.387Z,95080.00
2018-06-09T08:38:00.662Z,95076.00
2018-06-09T08:40:30.466Z,95081.00
2018-06-09T08:43:00.416Z,95082.00
2018-06-09T08:45:30.582Z,95090.00
2018-06-09T08:48:00.585Z,95088.00
2018-06-09T08:50:30.630Z,95074.00
2018-06-09T08:53:00.625Z,95072.00
2018-06-09T08:55:30.665Z,95074.00
2018-06-09T08:58:00.734Z,95080.00
2018-06-09T09:00:31.229Z,95083.00
2018-06-09T09:03:00.730Z,95080.00
2018-06-09T09:05:30.851Z,95082.00
2018-06-09T09:08:00.903Z,95076.00
2018-06-09T09:10:30.951Z,95076.00
2018-06-09T09:13:01.014Z,95079.00
2018-06-09T09:15:31.060Z,95078.00
2018-06-09T09:18:01.092Z,95073.00
2018-06-09T09:20:31.101Z,95083.00
2018-06-09T09:23:01.139Z,95075.00
2018-06-09T09:25:31.130Z,95083.00
2018-06-09T09:28:01.297Z,95084.00
2018-06-09T09:30:31.271Z,95080.00
2018-06-09T09:33:01.230Z,95073.00
2018-06-09T09:35:31.315Z,95081.00
2018-06-09T09:38:01.303Z,95072.00
2018-06-09T09:40:31.338Z,95080.00
2018-06-09T09:43:01.670Z,95071.00
2018-06-09T09:45:31.503Z,95088.00
2018-06-09T09:48:01.431Z,95079.00
2018-06-09T09:50:31.222Z,95080.00
2018-06-09T09:53:01.318Z,95078.00
2018-06-09T09:55:31.656Z,95081.00
2018-06-09T09:58:02.953Z,95076.00
2018-06-09T10:00:39.933Z,95064.00
2018-06-09T10:03:09.155Z,95080.00
2018-06-09T10:05:38.391Z,95071.00
2018-06-09T10:08:07.588Z,95071.00
2018-06-09T10:10:36.771Z,95071.00
2018-06-09T10:13:05.947Z,95072.00
2018-06-09T10:15:35.145Z,95070.00
2018-06-09T10:18:04.265Z,95066.00
2018-06-09T10:20:33.486Z,95063.00
2018-06-09T10:23:02.662Z,95054.00
2018-06-09T10:25:31.952Z,95048.00
2018-06-09T10:28:02.196Z,95036.00
2018-06-09T10:30:32.003Z,95048.00
2018-06-09T10:33:01.926Z,95050.00
2018-06-09T10:35:31.933Z,95041.00
2018-06-09T10:38:01.970Z,95036.00
2018-06-09T10:40:32.063Z,95033.00
2018-06-09T10:43:02.166Z,95037.00
2018-06-09T10:45:32.084Z,95040.00
2018-06-09T10:48:02.105Z,95031.00
2018-06-09T10:50:32.181Z,95031.00
2018-06-09T10:53:02.096Z,95036.00
2018-06-09T10:55:32.119Z,95031.00
2018-06-09T10:58:02.202Z,95032.00
2018-06-09T11:00:32.202Z,95034.00
2018-06-09T11:03:02.178Z,95027.00
2018-06-09T11:05:31.963Z,95023.00
2018-06-09T11:08:02.036Z,95023.00
2018-06-09T11:10:32.338Z,95027.00
2018-06-09T11:13:02.379Z,95023.00
2018-06-09T11:15:32.418Z,95020.00
2018-06-09T11:18:02.501Z,95025.00
2018-06-09T11:20:32.347Z,95021.00
2018-06-09T11:23:02.376Z,95017.00
2018-06-09T11:25:32.501Z,95014.00
2018-06-09T11:28:02.470Z,95027.00
2018-06-09T11:30:33.250Z,95018.00
2018-06-09T11:33:02.519Z,95016.00
2018-06-09T11:35:32.637Z,95019.00
2018-06-09T11:38:02.549Z,95013.00
2018-06-09T11:40:32.607Z,95022.00
2018-06-09T11:43:02.820Z,95017.00
2018-06-09T11:45:32.524Z,95009.00
2018-06-09T11:48:02.698Z,95007.00
2018-06-09T11:50:32.677Z,95001.00
2018-06-09T11:53:02.744Z,94998.00
2018-06-09T11:55:32.693Z,94993.00
2018-06-09T11:58:02.821Z,94996.00
2018-06-09T12:00:32.736Z,94990.00
2018-06-09T12:03:02.822Z,94987.00
2018-06-09T12:05:32.926Z,94991.00
2018-06-09T12:08:02.862Z,94992.00
2018-06-09T12:10:32.892Z,94983.00
2018-06-09T12:13:02.890Z,94984.00
2018-06-09T12:15:32.577Z,94976.00
2018-06-09T12:18:02.654Z,94976.00
2018-06-09T12:20:32.943Z,94981.00
2018-06-09T12:23:03.126Z,94973.00
2018-06-09T12:25:33.018Z,94975.00
2018-06-09T12:28:03.035Z,94967.00
2018-06-09T12:30:33.039Z,94961.00
2018-06-09T12:33:03.172Z,94976.00
2018-06-09T12:35:33.182Z,94972.00
2018-06-09T12:38:03.251Z,94963.00
2018-06-09T12:40:33.233Z,94967.00
2018-06-09T12:43:03.308Z,94963.00
2018-06-09T12:45:33.224Z,94963.00
2018-06-09T12:48:03.320Z,94958.00
2018-06-09T12:50:33.329Z,94953.00
2018-06-09T12:53:03.269Z,94948.00
2018-06-09T12:55:33.412Z,94950.00
2018-06-09T12:58:03.419Z,94940.00
2018-06-09T13:00:33.440Z,94929.00
2018-06-09T13:03:03.422Z,94931.00
2018-06-09T13:05:33.323Z,94924.00
2018-06-09T13:08:03.418Z,94924.00
2018-06-09T13:10:32.586Z,94917.00
2018-06-09T13:13:02.314Z,94907.00
2018-06-09T13:15:31.510Z,94904.00
2018-06-09T13:18:00.685Z,94910.00
2018-06-09T13:20:29.523Z,94914.00
2018-06-09T13:22:58.697Z,94914.00
2018-06-09T13:25:27.908Z,94912.00
2018-06-09T13:27:57.090Z,94906.00
2018-06-09T13:30:26.293Z,94903.00
2018-06-09T13:32:55.406Z,94901.00
2018-06-09T13:35:24.633Z,94894.00
2018-06-09T14:04:10.467Z,94897.00
2018-06-09T14:06:39.633Z,94893.00
2018-06-09T14:09:09.191Z,94894.00
2018-06-09T14:11:38.367Z,94900.00
2018-06-09T14:14:07.430Z,94877.00
2018-06-09T14:16:36.664Z,94871.00
2018-06-09T14:19:05.885Z,94874.00
2018-06-09T14:21:34.896Z,94871.00
2018-06-09T14:24:04.014Z,94875.00
2018-06-09T14:26:34.178Z,94873.00
2018-06-09T14:29:04.166Z,94868.00
2018-06-09T14:31:34.158Z,94864.00
2018-06-09T14:34:04.298Z,94866.00
2018-06-09T14:36:34.093Z,94862.00
2018-06-09T14:39:06.483Z,94867.00
2018-06-09T14:41:35.797Z,94874.00
2018-06-09T14:44:05.009Z,94871.00
2018-06-09T14:46:34.318Z,94880.00
2018-06-09T14:49:04.602Z,94877.00
2018-06-09T14:51:34.442Z,94878.00
2018-06-09T14:54:04.544Z,94875.00
2018-06-09T14:56:34.556Z,94891.00
2018-06-09T14:59:04.482Z,94891.00
2018-06-09T15:01:34.538Z,94905.00
2018-06-09T15:04:04.657Z,94901.00
2018-06-09T15:06:34.702Z,94902.00
2018-06-09T15:09:07.922Z,94902.00
2018-06-09T15:11:37.106Z,94912.00
2018-06-09T15:14:06.273Z,94900.00
2018-06-09T15:16:35.502Z,94899.00
2018-06-09T15:19:04.966Z,94898.00
2018-06-09T15:21:34.895Z,94900.00
2018-06-09T15:24:04.899Z,94884.00
2018-06-09T15:26:35.026Z,94893.00
2018-06-09T15:29:05.039Z,94885.00
2018-06-09T15:31:35.051Z,94890.00
2018-06-09T15:34:04.990Z,94889.00
2018-06-09T15:36:34.959Z,94895.00
2018-06-09T15:39:07.446Z,94890.00
2018-06-09T15:41:36.655Z,94889.00
2018-06-09T15:44:05.867Z,94883.00
2018-06-09T15:46:35.173Z,94877.00
2018-06-09T15:49:05.171Z,94878.00
2018-06-09T15:51:35.286Z,94874.00
2018-06-09T15:54:05.392Z,94892.00
2018-06-09T15:56:35.347Z,94912.00
2018-06-09T15:59:05.190Z,94918.00
2018-06-09T16:01:35.370Z,94918.00
2018-06-09T16:04:05.689Z,94918.00
2018-06-09T16:06:35.485Z,94916.00
2018-06-09T16:09:07.778Z,94923.00
2018-06-09T16:11:36.930Z,94916.00
2018-06-09T16:14:06.209Z,94932.00
2018-06-09T16:16:35.438Z,94919.00
2018-06-09T16:19:05.410Z,94916.00
2018-06-09T16:21:35.538Z,94916.00
2018-06-09T16:24:05.630Z,94919.00
2018-06-09T16:26:35.563Z,94932.00
2018-06-09T16:29:05.703Z,94932.00
2018-06-09T16:31:35.598Z,94927.00
2018-06-09T16:34:05.643Z,94917.00
2018-06-09T16:36:35.699Z,94927.00
2018-06-09T16:39:07.602Z,94934.00
2018-06-09T16:41:36.931Z,94936.00
2018-06-09T16:44:06.107Z,94939.00
2018-06-09T16:46:35.793Z,94936.00
2018-06-09T16:49:05.826Z,94934.00
2018-06-09T16:51:35.934Z,94935.00
2018-06-09T16:54:06.221Z,94928.00
2018-06-09T16:56:35.989Z,94920.00
2018-06-09T16:59:06.282Z,94918.00
2018-06-09T17:01:36.039Z,94908.00
2018-06-09T17:04:06.737Z,94914.00
2018-06-09T17:06:36.010Z,94917.00
2018-06-09T17:09:08.670Z,94912.00
2018-06-09T17:11:38.047Z,94906.00
2018-06-09T17:14:07.222Z,94910.00
2018-06-09T17:16:36.411Z,94921.00
2018-06-09T17:19:06.052Z,94915.00
2018-06-09T17:21:35.881Z,94916.00
2018-06-09T17:24:05.996Z,94919.00
2018-06-09T17:26:37.806Z,94919.00
2018-06-09T17:29:07.017Z,94925.00
2018-06-09T17:31:36.350Z,94925.00
2018-06-09T17:34:06.335Z,94917.00
2018-06-09T17:36:36.164Z,94915.00
2018-06-09T17:39:08.190Z,94905.00
2018-06-09T17:41:37.374Z,94911.00
2018-06-09T17:44:06.552Z,94900.00
2018-06-09T17:46:36.590Z,94900.00
2018-06-09T17:49:06.505Z,94899.00
2018-06-09T17:51:36.499Z,94896.00
2018-06-09T17:54:06.423Z,94902.00
2018-06-09T17:56:36.459Z,94905.00
2018-06-09T17:59:06.493Z,94900.00
2018-06-09T18:01:36.438Z,94910.00
2018-06-09T18:04:06.363Z,94914.00
2018-06-09T18:06:40.727Z,94923.00
2018-06-09T18:09:09.842Z,94919.00
2018-06-09T18:11:39.018Z,94921.00
2018-06-09T18:14:08.351Z,94921.00
2018-06-09T18:16:37.590Z,94929.00
2018-06-09T18:19:07.047Z,94936.00
2018-06-09T18:21:36.826Z,94938.00
2018-06-09T18:24:06.859Z,94941.00
2018-06-09T18:26:36.621Z,94945.00
2018-06-09T18:29:06.907Z,94939.00
2018-06-09T18:31:36.938Z,94939.00
2018-06-09T18:34:06.891Z,94948.00
2018-06-09T18:36:36.954Z,94951.00
2018-06-09T18:39:09.750Z,94945.00
2018-06-09T18:41:38.971Z,94947.00
2018-06-09T18:44:08.102Z,94941.00
2018-06-09T18:46:37.310Z,94929.00
2018-06-09T18:49:07.154Z,94935.00
2018-06-09T18:51:37.174Z,94933.00
2018-06-09T18:54:07.251Z,94938.00
2018-06-09T18:56:37.209Z,94940.00
2018-06-09T18:59:07.270Z,94952.00
2018-06-09T19:01:37.462Z,94953.00
2018-06-09T19:04:06.999Z,94951.00
2018-06-09T19:06:36.789Z,94939.00
2018-06-09T19:09:08.866Z,94939.00
2018-06-09T19:11:38.088Z,94951.00
2018-06-09T19:14:07.310Z,94954.00
2018-06-09T19:16:37.141Z,94951.00
2018-06-09T19:19:07.225Z,94942.00
2018-06-09T19:21:37.421Z,94946.00
2018-06-09T19:24:07.458Z,94959.00
2018-06-09T19:26:37.438Z,94971.00
2018-06-09T19:29:07.370Z,94971.00
2018-06-09T19:31:37.511Z,94975.00
2018-06-09T19:34:07.446Z,94981.00
2018-06-09T19:36:37.478Z,94987.00
2018-06-09T19:39:08.669Z,94997.00
2018-06-09T19:41:37.984Z,95008.00
2018-06-09T19:44:07.569Z,95013.00
2018-06-09T19:46:37.586Z,95011.00
2018-06-09T19:49:07.690Z,95014.00
2018-06-09T19:51:37.644Z,95016.00
2018-06-09T19:54:07.680Z,95025.00
2018-06-09T19:56:37.602Z,95010.00
2018-06-09T19:59:07.786Z,95015.00
2018-06-09T20:01:37.746Z,95014.00
2018-06-09T20:04:07.754Z,95010.00
2018-06-09T20:06:37.698Z,95022.00
2018-06-09T20:09:08.830Z,95019.00
2018-06-09T20:11:37.972Z,95019.00
2018-06-09T20:14:07.906Z,95024.00
2018-06-09T20:16:37.972Z,95024.00
2018-06-09T20:19:08.037Z,95024.00
2018-06-09T20:21:38.039Z,95030.00
2018-06-09T20:24:08.109Z,95031.00
2018-06-09T20:26:38.112Z,95039.00
2018-06-09T20:29:08.079Z,95041.00
2018-06-09T20:31:38.256Z,95042.00
2018-06-09T20:34:07.793Z,95048.00
2018-06-09T20:36:37.546Z,95050.00
2018-06-09T20:39:07.829Z,95048.00
2018-06-09T20:41:38.058Z,95051.00
2018-06-09T20:44:08.326Z,95044.00
2018-06-09T20:46:38.254Z,95038.00
2018-06-09T20:49:08.243Z,95053.00
2018-06-09T20:51:38.166Z,95049.00
2018-06-09T20:54:08.457Z,95049.00
2018-06-09T20:56:38.410Z,95051.00
2018-06-09T20:59:08.393Z,95043.00
2018-06-09T21:01:38.475Z,95051.00
2018-06-09T21:04:08.546Z,95046.00
2018-06-09T21:06:38.466Z,95053.00
2018-06-09T21:09:08.777Z,95055.00
2018-06-09T21:11:38.486Z,95049.00
2018-06-09T21:14:08.583Z,95045.00
2018-06-09T21:16:38.519Z,95054.00
2018-06-09T21:19:08.559Z,95055.00
2018-06-09T21:21:38.658Z,95055.00
2018-06-09T21:24:08.794Z,95054.00
2018-06-09T21:26:43.825Z,95046.00
2018-06-09T21:29:17.082Z,95046.00
2018-06-09T21:31:46.222Z,95050.00
2018-06-09T21:34:32.381Z,95052.00
2018-06-09T21:37:06.697Z,95056.00
2018-06-09T21:39:40.961Z,95054.00
2018-06-09T21:42:15.504Z,95063.00
2018-06-09T21:44:52.648Z,95076.00
2018-06-09T21:47:22.242Z,95072.00
2018-06-09T21:49:51.379Z,95063.00
2018-06-09T21:52:20.594Z,95067.00
2018-06-09T21:54:49.818Z,95074.00
2018-06-09T21:57:19.089Z,95062.00
2018-06-09T21:59:48.298Z,95073.00
2018-06-09T22:02:17.670Z,95075.00
2018-06-09T22:04:46.884Z,95069.00
2018-06-09T22:07:16.114Z,95071.00
2018-06-09T22:09:45.327Z,95071.00
2018-06-09T22:12:14.643Z,95078.00
2018-06-09T22:14:43.957Z,95076.00
2018-06-09T22:17:13.092Z,95080.00
2018-06-09T22:19:42.306Z,95087.00
2018-06-09T22:22:11.513Z,95092.00
2018-06-09T22:24:40.551Z,95093.00
2018-06-09T22:27:09.777Z,95083.00
2018-06-09T22:29:39.211Z,95095.00
2018-06-09T22:32:09.398Z,95097.00
2018-06-09T22:34:39.254Z,95096.00
2018-06-09T22:37:09.420Z,95094.00
2018-06-09T22:39:39.389Z,95088.00
2018-06-09T22:42:09.460Z,95097.00
2018-06-09T22:44:39.457Z,95094.00
2018-06-09T22:47:09.494Z,95096.00
2018-06-09T22:49:39.576Z,95099.00
2018-06-09T22:52:09.463Z,95099.00
2018-06-09T22:54:47.170Z,95093.00
2018-06-09T22:57:16.399Z,95092.00
2018-06-09T22:59:45.478Z,95093.00
2018-06-09T23:02:14.710Z,95093.00
2018-06-09T23:04:43.881Z,95100.00
2018-06-09T23:07:13.100Z,95099.00
2018-06-09T23:09:42.250Z,95094.00
2018-06-09T23:12:11.381Z,95085.00
2018-06-09T23:14:40.574Z,95083.00
2018-06-09T23:17:09.859Z,95086.00
2018-06-09T23:19:39.802Z,95091.00
2018-06-09T23:22:09.918Z,95082.00
2018-06-09T23:24:39.866Z,95078.00
2018-06-09T23:27:09.962Z,95080.00
2018-06-09T23:29:39.946Z,95081.00
2018-06-09T23:32:09.801Z,95082.00
2018-06-09T23:34:39.923Z,95068.00
2018-06-09T23:37:10.138Z,95068.00
2018-06-09T23:39:40.199Z,95065.00
2018-06-09T23:42:10.137Z,95065.00
2018-06-09T23:44:40.260Z,95069.00
2018-06-09T23:47:10.190Z,95068.00
2018-06-09T23:49:40.265Z,95074.00
2018-06-09T23:52:10.243Z,95064.00
2018-06-09T23:54:40.266Z,95058.00
2018-06-09T23:57:10.350Z,95056.00
2018-06-09T23:59:40.378Z,95066.00
